Terminal Aerodrome Forecast
Issued by NWS

Home | Current Version | Previous Version | Text Only | Print | Product List | Glossary On
Versions: 1 2 3 4 5 6 7 8 9 10 11 12 13 14 15 16 17 18 19 20
168
FTUS43 KICT 161506 AAB
TAFCNU
TAF AMD
KCNU 161506Z 1615/1712 20011KT 6SM BR OVC008
      TEMPO 1615/1617 3SM -RA BR SCT008 OVC014
     FM161900 21010KT P6SM OVC008
     FM162000 21010KT P6SM OVC012
     FM170200 26008KT P6SM BKN012=

USA.gov is the U.S. government's official web portal to all federal, state and local government web resources and services.